Time;durP1;ratioP1;P1;durP2;ratioP2;P2;SDS_P1;SDS_P2;PMS_P1;PMS_P2;Temp;Humidity;BMP_temperature;BMP_pressure;BME280_temperature;BME280_humidity;BME280_pressure;Samples;Min_cycle;Max_cycle;Signal;HPM_P1;HPM_P2
2023/01/03 14:25:33;;;;;;;35.55;23.17;;;;;;;;;;6044430;23;20056;-91
2023/01/03 17:42:13;;;;;;;36.53;23.13;;;;;;;;;;6007704;23;20411;-92
2023/01/03 17:44:39;;;;;;;30.10;19.23;;;;;;;;;;6012623;23;20023;-92
2023/01/03 17:49:58;;;;;;;34.63;21.98;;;;;;;;;;5984123;24;20072;-92
2023/01/03 17:52:29;;;;;;;32.65;21.48;;;;;;;;;;5983272;24;20016;-95
2023/01/03 17:54:54;;;;;;;81.25;45.42;;;;;;;;;;5986307;24;20012;-96
2023/01/03 17:57:20;;;;;;;250.95;126.50;;;;;;;;;;5984769;23;20052;-94
2023/01/03 17:59:46;;;;;;;106.97;59.88;;;;;;;;;;5983782;24;20012;-96
2023/01/03 18:02:20;;;;;;;103.60;60.78;;;;;;;;;;5983748;24;20016;-96
2023/01/03 18:04:46;;;;;;;83.20;52.15;;;;;;;;;;5986741;24;20005;-96
2023/01/03 18:07:19;;;;;;;70.97;46.33;;;;;;;;;;5985520;23;20008;-96
2023/01/03 18:09:46;;;;;;;43.78;30.10;;;;;;;;;;5988286;24;20077;-95
2023/01/03 18:12:16;;;;;;;39.22;26.23;;;;;;;;;;5985553;24;20091;-92
2023/01/03 18:14:41;;;;;;;;;;;;;;;;;;5983716;24;20015;-92
2023/01/03 18:17:31;;;;;;;38.45;25.08;;;;;;;;;;5984138;24;20238;-93
2023/01/03 18:19:58;;;;;;;34.95;23.20;;;;;;;;;;5972479;24;20004;-94
2023/01/03 18:22:24;;;;;;;38.00;23.85;;;;;;;;;;5984044;24;20011;-93
2023/01/03 18:24:51;;;;;;;36.90;25.25;;;;;;;;;;5984624;24;20000;-92
2023/01/03 18:27:17;;;;;;;36.55;24.38;;;;;;;;;;5982271;23;20021;-92
2023/01/03 18:29:42;;;;;;;39.38;25.23;;;;;;;;;;5982594;24;20008;-92
2023/01/03 18:32:20;;;;;;;34.78;23.30;;;;;;;;;;5982399;24;20037;-91
2023/01/03 18:34:45;;;;;;;35.25;22.45;;;;;;;;;;5983630;24;20088;-90
2023/01/03 18:37:11;;;;;;;29.48;20.17;;;;;;;;;;5982408;24;20008;-91
2023/01/03 18:39:36;;;;;;;31.52;21.90;;;;;;;;;;5982131;23;20019;-91
2023/01/03 18:44:45;;;;;;;34.75;24.02;;;;;;;;;;5987111;24;20493;-95
2023/01/03 18:47:12;;;;;;;33.30;21.10;;;;;;;;;;5988122;23;20012;-94
2023/01/03 18:49:38;;;;;;;31.42;22.85;;;;;;;;;;5991902;24;20038;-96
2023/01/03 18:52:03;;;;;;;29.40;20.65;;;;;;;;;;5992995;24;19993;-96
2023/01/03 18:54:29;;;;;;;30.48;20.98;;;;;;;;;;5990941;24;20012;-96
2023/01/03 18:56:55;;;;;;;32.00;21.17;;;;;;;;;;5988322;24;20008;-96
2023/01/03 18:59:23;;;;;;;36.40;23.17;;;;;;;;;;5996090;23;20009;-96
2023/01/03 19:01:49;;;;;;;35.85;23.77;;;;;;;;;;5997627;24;20454;-96
2023/01/03 19:04:14;;;;;;;32.65;21.55;;;;;;;;;;5973665;24;20016;-96
2023/01/03 19:06:45;;;;;;;36.47;22.90;;;;;;;;;;5991644;24;20015;-96
2023/01/03 19:09:23;;;;;;;27.52;20.10;;;;;;;;;;5991602;23;20088;-96
2023/01/03 19:11:50;;;;;;;24.38;16.65;;;;;;;;;;5988079;24;20322;-96
2023/01/03 19:14:15;;;;;;;25.98;16.33;;;;;;;;;;5994733;24;20065;-94
2023/01/03 19:16:41;;;;;;;24.02;17.25;;;;;;;;;;5972241;24;20394;-96
2023/01/03 19:19:08;;;;;;;24.05;16.58;;;;;;;;;;5997374;23;20008;-96
2023/01/03 19:21:51;;;;;;;27.88;18.10;;;;;;;;;;5995034;23;20031;-96
2023/01/03 19:24:31;;;;;;;28.42;18.67;;;;;;;;;;6035687;23;20355;-93
2023/01/03 19:27:25;;;;;;;27.27;18.17;;;;;;;;;;6066060;23;20003;-87
2023/01/03 19:29:54;;;;;;;30.15;18.52;;;;;;;;;;6036532;23;20029;-88
2023/01/03 19:32:47;;;;;;;27.92;17.90;;;;;;;;;;6040011;23;19992;-91
2023/01/03 19:35:22;;;;;;;28.77;19.13;;;;;;;;;;6038565;23;20011;-89
2023/01/03 19:38:09;;;;;;;32.60;24.02;;;;;;;;;;6058139;23;20030;-87
2023/01/03 19:40:38;;;;;;;28.80;21.90;;;;;;;;;;6031783;23;20059;-95
2023/01/03 19:43:37;;;;;;;30.75;21.00;;;;;;;;;;6038928;23;20075;-94
2023/01/03 19:46:05;;;;;;;38.00;25.13;;;;;;;;;;6034819;23;20011;-96
2023/01/03 19:48:51;;;;;;;39.33;26.13;;;;;;;;;;6051890;23;20059;-94
2023/01/03 19:51:16;;;;;;;36.15;23.27;;;;;;;;;;6047937;23;20011;-96
2023/01/03 19:53:41;;;;;;;38.03;24.50;;;;;;;;;;6046922;23;20011;-95
2023/01/03 19:56:19;;;;;;;31.10;20.85;;;;;;;;;;6049510;23;20008;-96
2023/01/03 19:58:45;;;;;;;27.77;19.65;;;;;;;;;;6027043;23;20457;-96
2023/01/03 20:01:19;;;;;;;32.20;20.25;;;;;;;;;;6053713;23;20007;-96
2023/01/03 20:03:46;;;;;;;30.05;20.13;;;;;;;;;;6054550;23;20015;-96
2023/01/03 20:06:14;;;;;;;30.45;18.83;;;;;;;;;;6063039;23;20015;-96
2023/01/03 20:08:39;;;;;;;34.55;23.48;;;;;;;;;;6058915;23;20035;-96
2023/01/03 20:11:15;;;;;;;35.00;22.65;;;;;;;;;;6053392;23;20019;-96
2023/01/03 20:13:41;;;;;;;28.17;19.20;;;;;;;;;;6049990;23;20011;-95
2023/01/03 20:16:09;;;;;;;29.77;19.15;;;;;;;;;;6041612;23;20131;-94
2023/01/03 20:18:35;;;;;;;24.60;16.58;;;;;;;;;;6043310;23;20088;-96
2023/01/03 20:21:10;;;;;;;23.20;16.45;;;;;;;;;;6044984;23;20026;-94
2023/01/03 20:23:41;;;;;;;24.70;16.58;;;;;;;;;;6042046;23;20007;-94
2023/01/03 20:26:16;;;;;;;20.50;14.32;;;;;;;;;;6023277;23;20000;-96
2023/01/03 20:28:42;;;;;;;19.65;13.68;;;;;;;;;;6031054;23;20022;-96
2023/01/03 20:31:08;;;;;;;20.35;14.50;;;;;;;;;;6052120;23;20011;-96
2023/01/03 20:33:33;;;;;;;24.33;15.93;;;;;;;;;;6046638;23;20042;-96
2023/01/03 20:36:05;;;;;;;28.33;21.35;;;;;;;;;;6042869;23;20014;-94
2023/01/03 20:38:32;;;;;;;28.50;20.35;;;;;;;;;;6039877;23;20079;-95
2023/01/03 20:40:57;;;;;;;24.38;17.77;;;;;;;;;;6040648;23;20011;-95
2023/01/03 20:43:23;;;;;;;28.83;18.90;;;;;;;;;;6040639;23;20015;-94
2023/01/03 20:45:52;;;;;;;28.60;19.70;;;;;;;;;;6042414;23;20030;-96
2023/01/03 20:48:18;;;;;;;29.95;19.38;;;;;;;;;;6040814;23;20008;-93
2023/01/03 20:50:44;;;;;;;25.67;17.85;;;;;;;;;;6040897;23;20331;-95
2023/01/03 20:53:20;;;;;;;22.88;17.90;;;;;;;;;;6041008;23;20011;-94
2023/01/03 20:55:46;;;;;;;30.50;19.80;;;;;;;;;;6040855;23;19999;-94
2023/01/03 20:58:16;;;;;;;33.72;20.48;;;;;;;;;;6041043;23;20446;-95
2023/01/03 21:00:42;;;;;;;;;;;;;;;;;;6016147;23;20450;-95
2023/01/03 21:03:11;;;;;;;37.95;24.15;;;;;;;;;;6042557;23;19910;-96
2023/01/03 21:05:39;;;;;;;27.55;19.70;;;;;;;;;;6025805;23;20029;-96
2023/01/03 21:10:55;;;;;;;29.65;20.38;;;;;;;;;;6053504;23;20079;-96
2023/01/03 21:13:21;;;;;;;34.97;24.35;;;;;;;;;;6053752;23;20004;-96
2023/01/03 21:15:48;;;;;;;35.67;23.98;;;;;;;;;;6051946;23;20023;-95
2023/01/03 21:18:16;;;;;;;34.00;22.95;;;;;;;;;;6053406;23;20007;-95
2023/01/03 21:20:42;;;;;;;33.03;21.30;;;;;;;;;;6044867;23;20010;-96
2023/01/03 21:23:16;;;;;;;29.77;20.25;;;;;;;;;;6050101;23;20003;-96
2023/01/03 21:25:42;;;;;;;30.17;20.77;;;;;;;;;;6029203;23;20090;-96
2023/01/03 21:28:09;;;;;;;32.15;21.52;;;;;;;;;;6051784;23;20030;-95
2023/01/03 21:30:34;;;;;;;31.88;20.95;;;;;;;;;;6039543;23;20046;-95
2023/01/03 21:33:00;;;;;;;36.13;22.73;;;;;;;;;;6040271;23;20007;-95
2023/01/03 21:35:26;;;;;;;34.45;22.10;;;;;;;;;;6020716;23;20036;-95
2023/01/03 21:37:53;;;;;;;33.38;20.73;;;;;;;;;;6007165;23;20023;-96
2023/01/03 21:40:49;;;;;;;30.67;20.45;;;;;;;;;;6027734;23;20043;-95
2023/01/03 21:43:15;;;;;;;33.45;21.40;;;;;;;;;;6054959;23;20475;-96
2023/01/03 21:45:44;;;;;;;32.28;20.75;;;;;;;;;;6024496;23;20011;-96
2023/01/03 21:48:14;;;;;;;30.02;20.02;;;;;;;;;;6020700;23;20011;-93
2023/01/03 21:50:45;;;;;;;28.65;20.30;;;;;;;;;;6017752;23;20011;-95
2023/01/03 21:53:17;;;;;;;32.08;20.02;;;;;;;;;;6040552;23;20071;-96
2023/01/03 21:55:42;;;;;;;31.10;21.08;;;;;;;;;;6039236;23;20427;-93
2023/01/03 21:58:12;;;;;;;27.52;19.00;;;;;;;;;;6015493;23;20014;-94
2023/01/03 22:00:38;;;;;;;26.65;18.20;;;;;;;;;;6039046;23;20011;-94
2023/01/03 22:05:47;;;;;;;28.08;18.90;;;;;;;;;;6040668;23;20030;-95
2023/01/03 22:08:12;;;;;;;29.95;20.05;;;;;;;;;;6021684;23;20412;-94
2023/01/03 22:10:40;;;;;;;29.00;19.33;;;;;;;;;;6015911;23;20023;-93
2023/01/03 22:13:09;;;;;;;28.52;17.75;;;;;;;;;;6041654;23;20007;-94
2023/01/03 22:15:35;;;;;;;29.50;18.02;;;;;;;;;;6040970;23;20011;-93
2023/01/03 22:18:01;;;;;;;27.38;18.17;;;;;;;;;;6039621;23;20030;-94
2023/01/03 22:20:27;;;;;;;30.25;21.23;;;;;;;;;;6039505;23;20419;-95
2023/01/03 22:22:53;;;;;;;31.20;20.90;;;;;;;;;;6016471;23;19999;-94
2023/01/03 22:25:21;;;;;;;30.70;20.23;;;;;;;;;;6018331;23;20007;-94
2023/01/03 22:27:47;;;;;;;30.67;20.05;;;;;;;;;;6017556;23;20007;-95
2023/01/03 22:30:15;;;;;;;30.15;19.73;;;;;;;;;;6041573;23;20019;-95
2023/01/03 22:32:41;;;;;;;29.10;19.98;;;;;;;;;;6043177;23;20458;-95
2023/01/03 22:35:08;;;;;;;29.52;19.98;;;;;;;;;;6019272;23;20094;-95
2023/01/03 22:37:33;;;;;;;31.10;20.00;;;;;;;;;;6041975;23;20011;-96
2023/01/03 22:39:59;;;;;;;30.05;19.40;;;;;;;;;;6041664;23;20014;-96
2023/01/03 22:42:24;;;;;;;30.42;19.00;;;;;;;;;;6041044;23;20055;-94
2023/01/03 22:44:50;;;;;;;24.60;15.45;;;;;;;;;;6041277;23;20041;-95
2023/01/03 22:47:16;;;;;;;26.25;17.60;;;;;;;;;;6041805;23;20023;-95
2023/01/03 22:49:41;;;;;;;18.95;13.52;;;;;;;;;;6019361;23;20072;-96
2023/01/03 22:52:07;;;;;;;23.90;14.70;;;;;;;;;;6042774;23;20068;-95
2023/01/03 22:54:34;;;;;;;22.77;14.93;;;;;;;;;;6044042;23;20063;-95
2023/01/03 22:57:00;;;;;;;19.83;13.15;;;;;;;;;;6041905;23;20039;-95
2023/01/03 22:59:25;;;;;;;17.25;12.63;;;;;;;;;;6020626;23;20517;-95
2023/01/03 23:01:51;;;;;;;19.42;13.02;;;;;;;;;;6041884;23;20565;-95
